createdAt,value
2023-05-17T00:01:19.625Z,12.30
2023-05-17T00:04:22.094Z,12.40
2023-05-17T00:07:24.427Z,12.20
2023-05-17T00:10:26.703Z,12.30
2023-05-17T00:13:28.905Z,12.10
2023-05-17T00:16:31.086Z,12.20
2023-05-17T00:19:33.854Z,12.10
2023-05-17T00:22:36.720Z,12.00
2023-05-17T00:25:38.870Z,12.10
2023-05-17T00:28:41.230Z,12.00
2023-05-17T00:31:46.617Z,12.00
2023-05-17T00:34:49.206Z,12.00
2023-05-17T00:40:58.910Z,11.90
2023-05-17T00:44:01.437Z,12.00
2023-05-17T00:47:06.018Z,11.90
2023-05-17T00:50:09.031Z,11.90
2023-05-17T00:53:13.965Z,11.80
2023-05-17T00:56:16.596Z,11.90
2023-05-17T00:59:19.038Z,11.90
2023-05-17T01:02:22.032Z,11.70
2023-05-17T01:05:24.721Z,11.70
2023-05-17T01:08:27.409Z,11.60
2023-05-17T01:11:44.944Z,11.70
2023-05-17T01:15:21.108Z,11.70
2023-05-17T01:18:38.108Z,11.60
2023-05-17T01:22:20.868Z,11.30
2023-05-17T01:25:38.609Z,11.40
2023-05-17T01:28:43.925Z,11.30
2023-05-17T01:31:48.238Z,11.20
2023-05-17T01:34:51.226Z,11.20
2023-05-17T01:37:53.924Z,11.00
2023-05-17T01:41:08.245Z,10.90
2023-05-17T01:44:40.929Z,10.90
2023-05-17T01:47:53.285Z,10.90
2023-05-17T01:50:58.487Z,11.00
2023-05-17T01:54:05.910Z,11.00
2023-05-17T01:57:10.234Z,10.90
2023-05-17T02:00:14.563Z,10.90
2023-05-17T02:03:20.615Z,10.90
2023-05-17T02:06:27.905Z,10.90
2023-05-17T02:09:30.394Z,10.90
2023-05-17T02:12:35.576Z,10.80
2023-05-17T02:15:39.814Z,10.80
2023-05-17T02:18:42.846Z,10.80
2023-05-17T02:21:47.687Z,10.80
2023-05-17T02:24:49.971Z,10.90
2023-05-17T02:27:52.230Z,10.80
2023-05-17T02:30:54.446Z,10.70
2023-05-17T02:33:56.919Z,10.70
2023-05-17T02:36:59.140Z,10.70
2023-05-17T02:40:02.282Z,10.60
2023-05-17T02:43:04.537Z,10.80
2023-05-17T02:46:13.227Z,10.70
2023-05-17T02:49:15.481Z,10.70
2023-05-17T02:52:17.794Z,10.90
2023-05-17T02:55:20.622Z,10.90
2023-05-17T02:58:23.223Z,10.90
2023-05-17T03:01:25.751Z,10.90
2023-05-17T03:04:29.018Z,10.90
2023-05-17T03:07:32.030Z,10.80
2023-05-17T03:10:39.825Z,10.80
2023-05-17T03:13:43.778Z,10.90
2023-05-17T03:20:44.195Z,10.80
2023-05-17T03:23:46.568Z,10.80
2023-05-17T03:26:48.617Z,10.50
2023-05-17T03:29:50.785Z,10.40
2023-05-17T03:32:53.385Z,10.50
2023-05-17T03:35:55.569Z,10.40
2023-05-17T03:39:00.002Z,10.40
2023-05-17T03:42:02.176Z,10.10
2023-05-17T03:45:05.470Z,10.30
2023-05-17T03:48:07.551Z,10.20
2023-05-17T03:51:10.651Z,10.40
2023-05-17T03:54:12.784Z,10.40
2023-05-17T03:57:14.803Z,10.40
2023-05-17T04:00:17.468Z,10.20
2023-05-17T04:03:20.229Z,10.40
2023-05-17T04:06:25.463Z,10.40
2023-05-17T04:09:30.956Z,10.30
2023-05-17T04:12:33.605Z,10.40
2023-05-17T04:15:36.139Z,10.40
2023-05-17T04:18:39.865Z,10.50
2023-05-17T04:21:42.076Z,10.40
2023-05-17T04:24:44.298Z,10.50
2023-05-17T04:27:46.886Z,10.60
2023-05-17T04:30:49.420Z,10.70
2023-05-17T04:33:51.556Z,10.80
2023-05-17T04:36:54.020Z,10.90
2023-05-17T04:39:56.252Z,10.90
2023-05-17T04:42:58.482Z,10.90
2023-05-17T04:46:03.918Z,10.90
2023-05-17T04:49:06.043Z,11.00
2023-05-17T04:52:08.775Z,11.10
2023-05-17T04:55:11.590Z,11.20
2023-05-17T04:58:13.882Z,11.30
2023-05-17T05:01:17.862Z,11.00
2023-05-17T05:04:20.305Z,10.90
2023-05-17T05:07:24.060Z,11.20
2023-05-17T05:10:26.251Z,11.20
2023-05-17T05:13:28.344Z,11.40
2023-05-17T05:16:30.510Z,11.40
2023-05-17T05:19:38.796Z,11.50
2023-05-17T05:22:41.729Z,11.70
2023-05-17T05:25:44.125Z,11.90
2023-05-17T05:28:47.259Z,12.00
2023-05-17T05:31:49.437Z,12.20
2023-05-17T05:34:55.110Z,12.30
2023-05-17T05:37:58.689Z,12.30
2023-05-17T05:41:01.577Z,12.20
2023-05-17T05:44:05.675Z,12.20
2023-05-17T05:47:08.036Z,12.30
2023-05-17T05:50:11.219Z,12.40
2023-05-17T05:53:18.702Z,12.60
2023-05-17T05:56:26.658Z,13.00
2023-05-17T05:59:28.750Z,13.30
2023-05-17T06:02:32.773Z,13.40
2023-05-17T06:05:35.082Z,13.70
2023-05-17T06:08:37.183Z,14.00
2023-05-17T06:11:42.360Z,13.90
2023-05-17T06:14:44.399Z,13.80
2023-05-17T06:17:46.565Z,14.10
2023-05-17T06:20:48.734Z,14.70
2023-05-17T06:23:50.894Z,14.90
2023-05-17T06:26:52.964Z,15.00
2023-05-17T06:29:54.968Z,15.10
2023-05-17T06:32:56.976Z,14.90
2023-05-17T06:35:59.406Z,14.90
2023-05-17T06:39:02.607Z,15.00
2023-05-17T06:42:05.063Z,15.20
2023-05-17T06:45:11.970Z,15.70
2023-05-17T06:48:14.507Z,16.80
2023-05-17T06:51:16.607Z,17.00
2023-05-17T06:54:18.579Z,17.20
2023-05-17T06:57:20.688Z,16.60
2023-05-17T07:00:23.200Z,17.10
2023-05-17T07:03:27.522Z,17.40
2023-05-17T07:06:29.668Z,17.90
2023-05-17T07:09:32.020Z,18.40
2023-05-17T07:12:34.410Z,18.70
2023-05-17T07:15:36.565Z,18.50
2023-05-17T07:18:38.585Z,18.90
2023-05-17T07:21:40.637Z,18.60
2023-05-17T07:24:47.201Z,18.70
2023-05-17T07:27:52.903Z,18.10
2023-05-17T07:30:54.891Z,18.00
2023-05-17T07:33:59.152Z,19.30
2023-05-17T07:37:01.189Z,18.80
2023-05-17T07:40:03.140Z,18.70
2023-05-17T07:43:05.259Z,17.40
2023-05-17T07:46:07.318Z,16.80
2023-05-17T07:49:09.312Z,18.00
2023-05-17T07:52:11.409Z,17.00
2023-05-17T07:55:14.758Z,16.30
2023-05-17T07:58:18.828Z,15.70
2023-05-17T08:01:20.767Z,16.40
2023-05-17T08:04:22.784Z,17.60
2023-05-17T08:07:24.845Z,17.50
2023-05-17T08:10:27.430Z,17.40
2023-05-17T08:13:29.576Z,18.30
2023-05-17T08:16:31.765Z,18.30
2023-05-17T08:19:33.891Z,18.50
2023-05-17T08:22:40.351Z,19.40
2023-05-17T08:25:42.341Z,19.60
2023-05-17T08:28:44.817Z,20.30
2023-05-17T08:31:46.853Z,20.30
2023-05-17T08:34:48.740Z,20.70
2023-05-17T08:37:50.761Z,19.90
2023-05-17T08:40:53.248Z,19.20
2023-05-17T08:43:58.211Z,18.00
2023-05-17T08:47:00.649Z,18.60
2023-05-17T08:50:02.765Z,19.50
2023-05-17T08:53:05.077Z,18.90
2023-05-17T08:56:07.455Z,17.80
2023-05-17T08:59:10.295Z,18.60
2023-05-17T09:02:14.412Z,19.20
2023-05-17T09:05:16.616Z,17.90
2023-05-17T09:08:20.348Z,17.00
2023-05-17T09:11:27.503Z,18.10
2023-05-17T09:14:34.166Z,18.30
2023-05-17T09:17:36.316Z,17.70
2023-05-17T09:20:38.614Z,19.40
2023-05-17T09:23:40.801Z,20.30
2023-05-17T09:26:46.332Z,18.90
2023-05-17T09:29:48.486Z,18.40
2023-05-17T09:32:50.577Z,18.10
2023-05-17T09:35:53.074Z,18.30
2023-05-17T09:38:57.142Z,19.40
2023-05-17T09:41:59.541Z,19.90
2023-05-17T09:45:01.924Z,19.20
2023-05-17T09:48:18.142Z,18.60
2023-05-17T09:51:20.247Z,17.50
2023-05-17T09:54:22.501Z,17.90
2023-05-17T09:57:27.586Z,17.50
2023-05-17T10:00:29.988Z,17.10
2023-05-17T10:03:39.184Z,17.00
2023-05-17T10:06:48.001Z,17.20
2023-05-17T10:09:54.676Z,16.70
2023-05-17T10:12:57.635Z,16.50
2023-05-17T10:16:01.414Z,16.30
2023-05-17T10:19:03.961Z,16.40
2023-05-17T10:22:21.839Z,16.60
2023-05-17T10:25:25.429Z,16.90
2023-05-17T10:28:28.140Z,16.70
2023-05-17T10:31:31.720Z,16.80
2023-05-17T10:34:35.715Z,16.60
2023-05-17T10:37:40.935Z,16.50
2023-05-17T10:40:44.760Z,16.40
2023-05-17T10:43:47.828Z,16.40
2023-05-17T10:46:55.517Z,16.40
2023-05-17T10:49:57.856Z,16.40
2023-05-17T11:05:32.004Z,17.00
2023-05-17T11:08:34.354Z,17.00
2023-05-17T11:11:36.836Z,17.50
2023-05-17T11:14:45.078Z,17.50
2023-05-17T11:17:49.743Z,17.50
2023-05-17T11:21:07.983Z,17.50
2023-05-17T11:24:12.714Z,17.90
2023-05-17T11:27:18.804Z,17.80
2023-05-17T11:30:27.320Z,18.00
2023-05-17T11:33:42.697Z,17.90
2023-05-17T11:36:55.476Z,17.70
2023-05-17T11:40:08.345Z,18.20
2023-05-17T11:43:18.538Z,18.60
2023-05-17T11:46:22.661Z,18.50
2023-05-17T11:49:35.074Z,18.40
2023-05-17T11:52:41.016Z,18.40
2023-05-17T11:55:45.751Z,18.00
2023-05-17T11:58:51.762Z,17.90
2023-05-17T12:01:53.756Z,17.70
2023-05-17T12:04:55.867Z,17.80
2023-05-17T12:07:58.016Z,18.00
2023-05-17T12:11:00.413Z,18.20
2023-05-17T12:14:02.723Z,18.40
2023-05-17T12:17:08.932Z,18.20
2023-05-17T12:20:11.676Z,18.20
2023-05-17T12:23:14.583Z,18.40
2023-05-17T12:26:18.739Z,18.80
2023-05-17T12:29:20.708Z,18.80
2023-05-17T12:32:23.024Z,18.60
2023-05-17T12:35:25.201Z,18.50
2023-05-17T12:38:27.247Z,18.70
2023-05-17T12:41:30.596Z,18.40
2023-05-17T12:44:33.351Z,18.20
2023-05-17T12:47:35.591Z,18.80
2023-05-17T12:50:38.764Z,18.90
2023-05-17T12:53:54.589Z,19.00
2023-05-17T12:56:57.126Z,19.10
2023-05-17T12:59:59.202Z,18.90
2023-05-17T13:03:01.494Z,18.50
2023-05-17T13:06:06.944Z,18.50
2023-05-17T13:09:08.927Z,18.40
2023-05-17T13:12:11.115Z,18.40
2023-05-17T13:15:15.261Z,18.30
2023-05-17T13:18:17.486Z,17.70
2023-05-17T13:21:20.081Z,17.90
2023-05-17T13:24:22.320Z,18.20
2023-05-17T13:27:24.299Z,19.00
2023-05-17T13:30:26.349Z,19.00
2023-05-17T13:33:28.490Z,19.20
2023-05-17T13:36:31.644Z,19.20
2023-05-17T13:39:34.172Z,19.00
2023-05-17T13:42:36.205Z,19.00
2023-05-17T13:45:38.254Z,18.70
2023-05-17T13:48:42.644Z,18.80
2023-05-17T13:51:45.102Z,18.90
2023-05-17T13:54:47.041Z,19.30
2023-05-17T13:57:49.022Z,18.90
2023-05-17T14:00:51.013Z,18.70
2023-05-17T14:03:53.307Z,18.70
2023-05-17T14:06:55.675Z,18.70
2023-05-17T14:09:58.972Z,18.90
2023-05-17T14:13:00.970Z,19.30
2023-05-17T14:16:03.138Z,19.40
2023-05-17T14:19:05.214Z,19.30
2023-05-17T14:22:07.339Z,19.50
2023-05-17T14:25:12.773Z,19.40
2023-05-17T14:28:14.840Z,19.00
2023-05-17T14:31:20.067Z,19.00
2023-05-17T14:34:22.441Z,19.20
2023-05-17T14:37:24.536Z,19.30
2023-05-17T14:40:26.857Z,19.30
2023-05-17T14:43:29.200Z,19.50
2023-05-17T14:46:31.195Z,19.70
2023-05-17T14:49:33.294Z,19.70
2023-05-17T14:52:35.534Z,19.60
2023-05-17T14:55:37.828Z,19.90
2023-05-17T14:58:40.029Z,20.00
2023-05-17T15:01:42.100Z,20.10
2023-05-17T15:04:45.707Z,19.80
2023-05-17T15:07:47.842Z,20.00
2023-05-17T15:10:50.265Z,20.10
2023-05-17T15:13:53.496Z,19.50
2023-05-17T15:17:06.245Z,19.40
2023-05-17T15:20:08.956Z,19.50
2023-05-17T15:23:11.679Z,19.50
2023-05-17T15:26:13.881Z,19.40
2023-05-17T15:29:16.021Z,19.40
2023-05-17T15:32:17.935Z,19.40
2023-05-17T15:35:20.010Z,19.20
2023-05-17T15:38:22.053Z,18.90
2023-05-17T15:41:24.345Z,18.90
2023-05-17T15:44:26.612Z,18.90
2023-05-17T15:47:38.752Z,19.10
2023-05-17T15:50:44.844Z,19.10
2023-05-17T15:53:47.384Z,19.30
2023-05-17T15:56:49.540Z,19.30
2023-05-17T15:59:51.706Z,19.40
2023-05-17T16:02:53.703Z,19.30
2023-05-17T16:05:55.788Z,19.40
2023-05-17T16:08:57.763Z,19.10
2023-05-17T16:11:59.825Z,18.80
2023-05-17T16:15:04.566Z,18.70
2023-05-17T16:18:06.677Z,18.50
2023-05-17T16:21:08.812Z,18.30
2023-05-17T16:24:10.809Z,18.50
2023-05-17T16:27:12.896Z,18.20
2023-05-17T16:30:16.010Z,18.30
2023-05-17T16:33:18.336Z,18.30
2023-05-17T16:36:20.479Z,18.20
2023-05-17T16:39:22.442Z,18.20
2023-05-17T16:42:24.514Z,18.00
2023-05-17T16:45:26.557Z,17.90
2023-05-17T16:48:28.711Z,17.90
2023-05-17T16:51:30.781Z,18.00
2023-05-17T16:54:32.907Z,18.10
2023-05-17T16:57:34.933Z,18.00
2023-05-17T17:00:37.207Z,18.00
2023-05-17T17:03:39.301Z,17.90
2023-05-17T17:06:41.259Z,17.90
2023-05-17T17:09:43.210Z,17.80
2023-05-17T17:12:45.187Z,17.50
2023-05-17T17:15:47.384Z,17.50
2023-05-17T17:18:49.526Z,17.70
2023-05-17T17:21:51.581Z,17.70
2023-05-17T17:24:53.579Z,17.70
2023-05-17T17:27:55.690Z,17.60
2023-05-17T17:30:57.765Z,17.70
2023-05-17T17:34:00.063Z,17.70
2023-05-17T17:37:02.064Z,17.60
2023-05-17T17:40:04.374Z,17.70
2023-05-17T17:43:06.377Z,17.60
2023-05-17T17:46:08.449Z,17.50
2023-05-17T17:49:10.396Z,17.60
2023-05-17T17:52:12.500Z,17.50
2023-05-17T17:55:15.002Z,17.40
2023-05-17T17:58:17.261Z,17.40
2023-05-17T18:01:19.296Z,17.50
2023-05-17T18:04:21.411Z,17.50
2023-05-17T18:07:23.411Z,17.50
2023-05-17T18:10:25.694Z,17.50
2023-05-17T18:13:27.630Z,17.50
2023-05-17T18:16:29.705Z,17.40
2023-05-17T18:19:32.025Z,17.40
2023-05-17T18:22:34.410Z,17.30
2023-05-17T18:25:36.497Z,17.30
2023-05-17T18:28:42.354Z,17.20
2023-05-17T18:31:45.641Z,17.20
2023-05-17T18:34:47.881Z,17.20
2023-05-17T18:37:49.898Z,17.00
2023-05-17T18:40:52.156Z,16.90
2023-05-17T18:43:54.427Z,16.70
2023-05-17T18:46:56.382Z,16.50
2023-05-17T18:49:58.538Z,16.30
2023-05-17T18:53:00.594Z,16.30
2023-05-17T18:56:02.789Z,16.20
2023-05-17T18:59:04.883Z,16.00
2023-05-17T19:02:07.668Z,16.00
2023-05-17T19:05:09.750Z,16.00
2023-05-17T19:08:12.354Z,15.80
2023-05-17T19:11:14.471Z,15.70
2023-05-17T19:14:16.633Z,15.60
2023-05-17T19:17:19.496Z,15.40
2023-05-17T19:20:21.593Z,15.40
2023-05-17T19:23:23.663Z,15.40
2023-05-17T19:26:25.735Z,15.30
2023-05-17T19:29:27.881Z,15.20
2023-05-17T19:32:31.253Z,14.90
2023-05-17T19:35:33.302Z,14.40
2023-05-17T19:38:35.337Z,14.30
2023-05-17T19:41:39.506Z,14.20
2023-05-17T19:44:43.946Z,14.20
2023-05-17T19:47:46.021Z,14.10
2023-05-17T19:50:48.242Z,14.10
2023-05-17T19:53:54.062Z,13.90
2023-05-17T19:56:57.278Z,13.90
2023-05-17T19:59:59.390Z,13.90
2023-05-17T20:03:01.763Z,13.50
2023-05-17T20:06:04.015Z,13.60
2023-05-17T20:09:06.044Z,13.60
2023-05-17T20:12:08.533Z,13.20
2023-05-17T20:15:11.196Z,13.40
2023-05-17T20:18:13.201Z,13.10
2023-05-17T20:21:17.092Z,12.90
2023-05-17T20:24:19.232Z,12.50
2023-05-17T20:27:21.458Z,12.60
2023-05-17T20:30:23.557Z,12.40
2023-05-17T20:33:25.787Z,12.40
2023-05-17T20:36:31.614Z,12.30
2023-05-17T20:39:33.620Z,12.30
2023-05-17T20:42:35.864Z,12.00
2023-05-17T20:45:37.999Z,12.00
2023-05-17T20:48:40.852Z,12.40
2023-05-17T20:51:43.136Z,12.60
2023-05-17T20:54:45.180Z,12.60
2023-05-17T20:57:47.251Z,12.60
2023-05-17T21:00:49.260Z,12.70
2023-05-17T21:03:51.564Z,12.70
2023-05-17T21:06:53.653Z,12.40
2023-05-17T21:09:56.069Z,12.60
2023-05-17T21:12:58.042Z,12.70
2023-05-17T21:16:00.240Z,12.60
2023-05-17T21:19:02.472Z,12.70
2023-05-17T21:22:07.621Z,12.60
2023-05-17T21:25:10.069Z,12.20
2023-05-17T21:28:14.707Z,12.30
2023-05-17T21:31:19.337Z,12.00
2023-05-17T21:34:21.695Z,12.20
2023-05-17T21:37:23.744Z,12.20
2023-05-17T21:40:25.869Z,12.20
2023-05-17T21:43:27.958Z,12.30
2023-05-17T21:46:30.042Z,12.20
2023-05-17T21:49:32.285Z,11.90
2023-05-17T21:52:34.379Z,12.30
2023-05-17T21:55:51.226Z,12.30
2023-05-17T21:58:58.609Z,12.30
2023-05-17T22:02:00.634Z,12.30
2023-05-17T22:05:02.789Z,11.90
2023-05-17T22:08:05.182Z,11.70
2023-05-17T22:11:07.302Z,11.70
2023-05-17T22:14:09.502Z,11.60
2023-05-17T22:17:11.535Z,11.80
2023-05-17T22:20:13.654Z,11.90
2023-05-17T22:23:15.714Z,11.70
2023-05-17T22:26:17.709Z,11.40
2023-05-17T22:29:21.204Z,11.50
2023-05-17T22:32:23.562Z,11.50
2023-05-17T22:35:25.707Z,11.60
2023-05-17T22:38:27.744Z,11.70
2023-05-17T22:41:29.729Z,11.70
2023-05-17T22:44:31.913Z,11.50
2023-05-17T22:47:34.638Z,11.20
2023-05-17T22:50:36.766Z,11.50
2023-05-17T22:53:38.988Z,11.40
2023-05-17T22:56:40.954Z,11.40
2023-05-17T22:59:43.037Z,11.50
2023-05-17T23:02:45.552Z,11.50
2023-05-17T23:05:49.281Z,11.60
2023-05-17T23:08:51.281Z,11.70
2023-05-17T23:11:53.341Z,11.70
2023-05-17T23:14:55.454Z,11.70
2023-05-17T23:18:00.589Z,11.80
2023-05-17T23:21:02.614Z,12.00
2023-05-17T23:24:04.689Z,12.10
2023-05-17T23:27:07.250Z,11.90
2023-05-17T23:30:10.708Z,11.90
2023-05-17T23:33:12.726Z,11.90
2023-05-17T23:36:14.748Z,11.80
2023-05-17T23:39:16.746Z,11.90
2023-05-17T23:42:18.799Z,11.80
2023-05-17T23:45:20.813Z,11.70
2023-05-17T23:48:23.104Z,11.70
2023-05-17T23:51:25.283Z,11.70
2023-05-17T23:54:28.247Z,11.70
2023-05-17T23:57:30.321Z,11.60
